ePrivacy and GPDR Cookie Consent by Cookie Consent
EmailTwitter


Observations de surface / Royaume-Uni / EGLL (03772)

Régions: Québec | Canada | États-Unis | Europe | France | UK | Ailleurs
Station
Affichage
Infos & localisation pour EGLL (03772) | Aide pour décoder les METARs

Observations prises le 2021-09-22 à 12H20 UTC à LONDON/HEATHROW, UK (EGLL)

Etat du ciel: quelques nuages.

Température: 21.0 Celsius

Point de rosée: 12.0 Celsius

Humidité relative: 56%

Vents: Ouest-sud-ouest à 13 km/h ou 7 noeuds.

Pression au niveau moyen de la mer: 102.70 kilopascals.

Visibilité horizontale: 6.21 milles terrestres ou 9.94 kilomètres.

Observation METAR:

EGLL 221220Z AUTO 25007KT 210V290 9999 FEW034 21/12 Q1027 NOSIG=